Terminal Aerodrome Forecast
Issued by NWS

Home | Current Version | Previous Version | Text Only | Print | Product List | Glossary On
Versions: 1 2 3 4 5 6 7 8 9 10 11 12
000
FTUS44 KJAN 222300 RRA
TAFGTR
TAF
KGTR 222352Z 2300/2324 13008KT P6SM BKN250
     FM230800 12012KT P6SM BKN010 BKN150 OVC250
     FM231130 13013KT 6SM -SHRA BR OVC009
     FM231430 14015KT 4SM -TSRA OVC010CB
     FM231900 18013G24KT P6SM VCSH SCT020 BKN040=

USA.gov is the U.S. government's official web portal to all federal, state and local government web resources and services.